Time;durP1;ratioP1;P1;durP2;ratioP2;P2;SDS_P1;SDS_P2;PMS_P1;PMS_P2;Temp;Humidity;BMP_temperature;BMP_pressure;BME280_temperature;BME280_humidity;BME280_pressure;Samples;Min_cycle;Max_cycle;Signal;HPM_P1;HPM_P2
2022/05/07 00:00:29;;;;;;;1999.90;999.90;;;;;;;;;;5039449;28;20402;-71
2022/05/07 00:02:57;;;;;;;1999.90;999.90;;;;;;;;;;5022233;28;21221;-71
2022/05/07 00:05:25;;;;;;;1999.90;999.90;;;;;;;;;;5022752;28;21028;-72
2022/05/07 00:07:54;;;;;;;1999.90;999.90;;;;;;;;;;5025375;28;20792;-73
2022/05/07 00:10:22;;;;;;;1999.90;999.90;;;;;;;;;;5018948;28;20971;-71
2022/05/07 00:12:49;;;;;;;1999.90;999.90;;;;;;;;;;5025340;28;20412;-72
2022/05/07 00:15:17;;;;;;;1999.90;999.90;;;;;;;;;;5024754;28;20475;-72
2022/05/07 00:18:03;;;;;;;1999.90;999.90;;;;;;;;;;5024666;28;20437;-72
2022/05/07 00:20:32;;;;;;;1999.90;999.90;;;;;;;;;;5026289;28;20406;-71
2022/05/07 00:23:01;;;;;;;1999.90;999.90;;;;;;;;;;5025343;28;20450;-71
2022/05/07 00:25:29;;;;;;;1999.90;999.90;;;;;;;;;;5024647;28;20599;-71
2022/05/07 00:27:56;;;;;;;1999.90;999.90;;;;;;;;;;5027043;28;20398;-72
2022/05/07 00:30:24;;;;;;;1999.90;999.90;;;;;;;;;;5021148;28;20412;-72
2022/05/07 00:32:52;;;;;;;1999.90;999.90;;;;;;;;;;5024257;28;20408;-72
2022/05/07 00:35:20;;;;;;;1999.90;999.90;;;;;;;;;;5007284;28;20421;-73
2022/05/07 00:37:47;;;;;;;1999.90;999.90;;;;;;;;;;5026301;28;20411;-72
2022/05/07 00:40:17;;;;;;;1999.90;999.90;;;;;;;;;;5024953;28;20482;-73
2022/05/07 00:42:44;;;;;;;1999.90;999.90;;;;;;;;;;5047342;28;20973;-72
2022/05/07 00:45:12;;;;;;;1999.90;999.90;;;;;;;;;;5026734;28;20582;-72
2022/05/07 00:47:40;;;;;;;1999.90;999.90;;;;;;;;;;5023219;28;20406;-72
2022/05/07 00:52:53;;;;;;;1999.90;999.90;;;;;;;;;;5040971;28;20420;-72
2022/05/07 00:55:22;;;;;;;1999.90;999.90;;;;;;;;;;5030577;28;20410;-72
2022/05/07 00:57:50;;;;;;;1999.90;999.90;;;;;;;;;;5026626;28;20418;-72
2022/05/07 01:00:18;;;;;;;1999.90;999.90;;;;;;;;;;5027441;28;20537;-73
2022/05/07 01:02:47;;;;;;;1999.90;999.90;;;;;;;;;;5028235;28;20410;-72
2022/05/07 01:05:15;;;;;;;1999.90;999.90;;;;;;;;;;5010361;28;20440;-71
2022/05/07 01:07:45;;;;;;;1999.90;999.90;;;;;;;;;;5025339;28;20492;-72
2022/05/07 01:10:14;;;;;;;1999.90;999.90;;;;;;;;;;5006646;28;21069;-72
2022/05/07 01:12:43;;;;;;;1999.90;999.90;;;;;;;;;;5042825;28;20486;-72
2022/05/07 01:15:11;;;;;;;1999.90;999.90;;;;;;;;;;5026093;28;20396;-72
2022/05/07 01:17:40;;;;;;;1999.90;999.90;;;;;;;;;;5009077;28;20412;-72
2022/05/07 01:20:13;;;;;;;1999.90;999.90;;;;;;;;;;5018653;28;20420;-73
2022/05/07 01:22:45;;;;;;;1999.90;999.90;;;;;;;;;;5043728;28;20505;-72
2022/05/07 01:25:16;;;;;;;1999.90;999.90;;;;;;;;;;5008726;28;20479;-72
2022/05/07 01:27:44;;;;;;;1999.90;999.90;;;;;;;;;;5006845;28;20396;-72
2022/05/07 01:30:13;;;;;;;1999.90;999.90;;;;;;;;;;5005684;28;20421;-72
2022/05/07 01:32:41;;;;;;;1999.90;999.90;;;;;;;;;;5019697;28;20995;-72
2022/05/07 01:35:09;;;;;;;1999.90;999.90;;;;;;;;;;5043735;28;20418;-71
2022/05/07 01:37:37;;;;;;;1999.90;999.90;;;;;;;;;;5023691;28;20407;-72
2022/05/07 01:40:07;;;;;;;1999.90;999.90;;;;;;;;;;5025680;28;20404;-72
2022/05/07 01:42:37;;;;;;;1999.90;999.90;;;;;;;;;;5009840;28;20400;-72
2022/05/07 01:45:06;;;;;;;1999.90;999.90;;;;;;;;;;5023947;28;20441;-73
2022/05/07 01:50:23;;;;;;;1999.90;999.90;;;;;;;;;;5041879;28;20437;-72
2022/05/07 01:52:51;;;;;;;1999.90;999.90;;;;;;;;;;5010354;28;20936;-72
2022/05/07 01:55:20;;;;;;;1999.90;999.90;;;;;;;;;;5019414;28;20475;-72
2022/05/07 01:57:52;;;;;;;1999.90;999.90;;;;;;;;;;5010383;28;20488;-73
2022/05/07 02:00:21;;;;;;;1999.90;999.90;;;;;;;;;;5008186;28;20444;-72
2022/05/07 02:02:49;;;;;;;1999.90;999.90;;;;;;;;;;5023235;28;20919;-72
2022/05/07 02:05:21;;;;;;;1999.90;999.90;;;;;;;;;;5018113;28;20405;-73
2022/05/07 02:07:49;;;;;;;1999.90;999.90;;;;;;;;;;5028239;28;20424;-71
2022/05/07 02:10:17;;;;;;;1999.90;999.90;;;;;;;;;;5026630;28;20402;-72
2022/05/07 02:12:47;;;;;;;1999.90;999.90;;;;;;;;;;5026790;28;20408;-72
2022/05/07 02:15:17;;;;;;;1999.90;999.90;;;;;;;;;;5010123;28;20366;-71
2022/05/07 02:17:45;;;;;;;1999.90;999.90;;;;;;;;;;5022217;28;20916;-70
2022/05/07 02:20:12;;;;;;;1999.90;999.90;;;;;;;;;;5024368;28;20917;-70
2022/05/07 02:22:40;;;;;;;1999.90;999.90;;;;;;;;;;5007006;28;20470;-71
2022/05/07 02:25:08;;;;;;;1999.90;999.90;;;;;;;;;;5025223;28;20392;-71
2022/05/07 02:27:36;;;;;;;1999.90;999.90;;;;;;;;;;5041985;28;20885;-72
2022/05/07 02:30:07;;;;;;;1999.90;999.90;;;;;;;;;;5022896;28;21178;-71
2022/05/07 02:32:35;;;;;;;1999.90;999.90;;;;;;;;;;5023348;28;20409;-72
2022/05/07 02:35:03;;;;;;;1999.90;999.90;;;;;;;;;;5008026;28;20477;-72
2022/05/07 02:37:37;;;;;;;1999.90;999.90;;;;;;;;;;5024960;28;20427;-71
2022/05/07 02:40:05;;;;;;;1999.90;999.90;;;;;;;;;;5025063;28;20483;-70
2022/05/07 02:42:33;;;;;;;1999.90;999.90;;;;;;;;;;5007256;28;20441;-71
2022/05/07 02:45:09;;;;;;;1999.90;999.90;;;;;;;;;;5008519;28;20577;-71
2022/05/07 02:47:38;;;;;;;1999.90;999.90;;;;;;;;;;5007359;28;20472;-73
2022/05/07 02:50:07;;;;;;;1999.90;999.90;;;;;;;;;;5042876;28;20470;-71
2022/05/07 02:52:35;;;;;;;1999.90;999.90;;;;;;;;;;5026746;28;20420;-72
2022/05/07 02:55:05;;;;;;;1999.90;999.90;;;;;;;;;;5028809;28;20397;-71
2022/05/07 02:57:34;;;;;;;1999.90;999.90;;;;;;;;;;5031885;28;20545;-72
2022/05/07 03:00:03;;;;;;;1999.90;999.90;;;;;;;;;;5006747;28;20387;-71
2022/05/07 03:02:34;;;;;;;1999.90;999.90;;;;;;;;;;5009734;28;20422;-71
2022/05/07 03:05:01;;;;;;;1999.90;999.90;;;;;;;;;;5009647;28;20940;-72
2022/05/07 03:07:29;;;;;;;1999.90;999.90;;;;;;;;;;5021546;28;20471;-72
2022/05/07 03:09:59;;;;;;;1999.90;999.90;;;;;;;;;;5039209;28;20413;-70
2022/05/07 03:12:28;;;;;;;1999.90;999.90;;;;;;;;;;5009720;28;20422;-70
2022/05/07 03:14:56;;;;;;;1999.90;999.90;;;;;;;;;;5024476;28;20397;-71
2022/05/07 03:17:26;;;;;;;1999.90;999.90;;;;;;;;;;5025073;28;20412;-70
2022/05/07 03:19:55;;;;;;;1999.90;999.90;;;;;;;;;;5024980;28;20408;-70
2022/05/07 03:22:26;;;;;;;1999.90;999.90;;;;;;;;;;5025747;28;20414;-70
2022/05/07 03:24:56;;;;;;;1999.90;999.90;;;;;;;;;;5041601;28;20400;-71
2022/05/07 03:27:29;;;;;;;1999.90;999.90;;;;;;;;;;5003893;28;20469;-71
2022/05/07 03:29:57;;;;;;;1999.90;999.90;;;;;;;;;;5005999;28;20905;-71
2022/05/07 03:32:26;;;;;;;1999.90;999.90;;;;;;;;;;5022542;28;20468;-72
2022/05/07 03:34:57;;;;;;;1999.90;999.90;;;;;;;;;;5005113;28;20912;-72
2022/05/07 03:37:25;;;;;;;1999.90;999.90;;;;;;;;;;5005226;28;20420;-72
2022/05/07 03:39:54;;;;;;;1999.90;999.90;;;;;;;;;;5021901;28;20402;-71
2022/05/07 03:42:22;;;;;;;1999.90;999.90;;;;;;;;;;5026985;28;20426;-71
2022/05/07 03:44:50;;;;;;;1999.90;999.90;;;;;;;;;;5024050;28;20397;-72
2022/05/07 03:47:18;;;;;;;1999.90;999.90;;;;;;;;;;5039509;28;20473;-72
2022/05/07 03:49:47;;;;;;;1999.90;999.90;;;;;;;;;;5019698;28;20553;-73
2022/05/07 03:55:07;;;;;;;1999.90;999.90;;;;;;;;;;5006055;28;20390;-72
2022/05/07 03:57:35;;;;;;;1999.90;999.90;;;;;;;;;;5021238;28;20425;-73
2022/05/07 04:00:03;;;;;;;1999.90;999.90;;;;;;;;;;5024500;28;20920;-72
2022/05/07 04:02:40;;;;;;;1999.90;999.90;;;;;;;;;;5017468;28;20452;-73
2022/05/07 04:05:20;;;;;;;1999.90;999.90;;;;;;;;;;5026511;28;20404;-73
2022/05/07 04:07:49;;;;;;;1999.90;999.90;;;;;;;;;;5002970;28;20414;-72
2022/05/07 04:10:17;;;;;;;1999.90;999.90;;;;;;;;;;5020082;28;20405;-72
2022/05/07 04:12:48;;;;;;;1999.90;999.90;;;;;;;;;;5009810;28;20488;-72
2022/05/07 04:15:20;;;;;;;1999.90;999.90;;;;;;;;;;5019880;28;20725;-71
2022/05/07 04:17:54;;;;;;;1999.90;999.90;;;;;;;;;;5018650;28;20417;-71
2022/05/07 04:20:22;;;;;;;1999.90;999.90;;;;;;;;;;5023716;28;20513;-71
2022/05/07 04:22:57;;;;;;;1999.90;999.90;;;;;;;;;;5020445;28;20442;-71
2022/05/07 04:25:24;;;;;;;1999.90;999.90;;;;;;;;;;5023432;28;20418;-72
2022/05/07 04:27:53;;;;;;;1999.90;999.90;;;;;;;;;;5009323;28;20538;-72
2022/05/07 04:30:22;;;;;;;1999.90;999.90;;;;;;;;;;5028537;28;21232;-73
2022/05/07 04:32:51;;;;;;;1999.90;999.90;;;;;;;;;;5024782;28;20916;-71
2022/05/07 04:35:19;;;;;;;1999.90;999.90;;;;;;;;;;5024870;28;20402;-72
2022/05/07 04:37:47;;;;;;;1999.90;999.90;;;;;;;;;;5042874;28;20398;-73
2022/05/07 04:40:16;;;;;;;1999.90;999.90;;;;;;;;;;5008603;28;20406;-72
2022/05/07 04:42:46;;;;;;;1999.90;999.90;;;;;;;;;;5027362;28;20855;-72
2022/05/07 04:45:15;;;;;;;1999.90;999.90;;;;;;;;;;5025879;28;20525;-73
2022/05/07 04:48:03;;;;;;;1999.90;999.90;;;;;;;;;;5028949;28;20412;-73
2022/05/07 04:50:34;;;;;;;1999.90;999.90;;;;;;;;;;5042439;28;20500;-72
2022/05/07 04:53:24;;;;;;;1999.90;999.90;;;;;;;;;;5028391;28;20729;-73
2022/05/07 04:55:54;;;;;;;1999.90;999.90;;;;;;;;;;5022802;28;20486;-71
2022/05/07 04:58:24;;;;;;;1999.90;999.90;;;;;;;;;;5024884;28;20410;-72
2022/05/07 05:00:52;;;;;;;1999.90;999.90;;;;;;;;;;5025621;28;20988;-72
2022/05/07 05:03:23;;;;;;;1999.90;999.90;;;;;;;;;;5040662;28;20501;-72
2022/05/07 05:06:11;;;;;;;1999.90;999.90;;;;;;;;;;5023857;28;20449;-72
2022/05/07 05:09:18;;;;;;;1999.90;999.90;;;;;;;;;;5006175;28;21036;-73
2022/05/07 05:11:53;;;;;;;1999.90;999.90;;;;;;;;;;5022264;28;20461;-72
2022/05/07 05:17:08;;;;;;;1999.90;999.90;;;;;;;;;;5042873;28;20970;-73
2022/05/07 05:19:42;;;;;;;1999.90;999.90;;;;;;;;;;5026061;28;20413;-73
2022/05/07 05:22:15;;;;;;;1999.90;999.90;;;;;;;;;;5024965;28;20398;-72
2022/05/07 05:24:44;;;;;;;1999.90;999.90;;;;;;;;;;5028622;28;20492;-72
2022/05/07 05:27:13;;;;;;;1999.90;999.90;;;;;;;;;;5007122;28;20491;-71
2022/05/07 05:29:47;;;;;;;1999.90;999.90;;;;;;;;;;5009610;28;20408;-73
2022/05/07 05:32:18;;;;;;;1999.90;999.90;;;;;;;;;;5007254;28;20429;-72
2022/05/07 05:34:52;;;;;;;1999.90;999.90;;;;;;;;;;5027437;28;20840;-73
2022/05/07 05:37:26;;;;;;;1999.90;999.90;;;;;;;;;;5026511;28;20403;-72
2022/05/07 05:39:53;;;;;;;1999.90;999.90;;;;;;;;;;5027928;28;20402;-73
2022/05/07 05:42:27;;;;;;;1999.90;999.90;;;;;;;;;;5028276;28;20402;-73
2022/05/07 05:44:55;;;;;;;1999.90;999.90;;;;;;;;;;5025087;28;20887;-73
2022/05/07 05:47:24;;;;;;;1999.90;999.90;;;;;;;;;;5009241;28;20397;-73
2022/05/07 05:49:53;;;;;;;1999.90;999.90;;;;;;;;;;5024174;28;20417;-72
2022/05/07 05:52:27;;;;;;;1999.90;999.90;;;;;;;;;;5041356;28;20514;-73
2022/05/07 05:54:55;;;;;;;1999.90;999.90;;;;;;;;;;5029592;28;21282;-72
2022/05/07 05:57:23;;;;;;;1999.90;999.90;;;;;;;;;;5042234;28;20402;-73
2022/05/07 05:59:52;;;;;;;1999.90;999.90;;;;;;;;;;5024631;28;20525;-73
2022/05/07 06:02:20;;;;;;;1999.90;999.90;;;;;;;;;;5018109;28;20833;-72
2022/05/07 06:04:57;;;;;;;1999.90;999.90;;;;;;;;;;5006518;28;20432;-72
2022/05/07 06:07:27;;;;;;;1999.90;999.90;;;;;;;;;;5008957;28;20393;-72
2022/05/07 06:10:00;;;;;;;1999.90;999.90;;;;;;;;;;5020447;28;20397;-72
2022/05/07 06:12:31;;;;;;;1999.90;999.90;;;;;;;;;;5022745;28;20401;-72
2022/05/07 06:15:01;;;;;;;1999.90;999.90;;;;;;;;;;5007764;28;20432;-72
2022/05/07 06:17:32;;;;;;;1999.90;999.90;;;;;;;;;;4999349;28;20428;-72
2022/05/07 06:20:01;;;;;;;1999.90;999.90;;;;;;;;;;5022205;28;20397;-72
2022/05/07 06:22:34;;;;;;;1999.90;999.90;;;;;;;;;;5020259;28;20403;-72
2022/05/07 06:28:02;;;;;;;1999.90;999.90;;;;;;;;;;5021464;28;21000;-71
2022/05/07 06:30:35;;;;;;;1999.90;999.90;;;;;;;;;;5025752;28;20943;-72
2022/05/07 06:33:06;;;;;;;1999.90;999.90;;;;;;;;;;5006872;28;20439;-72
2022/05/07 06:35:42;;;;;;;1999.90;999.90;;;;;;;;;;5025628;28;20778;-72
2022/05/07 06:38:13;;;;;;;1999.90;999.90;;;;;;;;;;5024276;28;20404;-73
2022/05/07 06:40:47;;;;;;;1999.90;999.90;;;;;;;;;;5009620;28;20882;-71
2022/05/07 06:43:15;;;;;;;1999.90;999.90;;;;;;;;;;5020676;28;21576;-72
2022/05/07 06:46:03;;;;;;;1999.90;999.90;;;;;;;;;;5017332;28;20465;-72
2022/05/07 06:48:34;;;;;;;1999.90;999.90;;;;;;;;;;5003398;28;20456;-71
2022/05/07 06:51:08;;;;;;;1999.90;999.90;;;;;;;;;;5007201;28;21561;-73
2022/05/07 06:53:36;;;;;;;1999.90;999.90;;;;;;;;;;5006485;28;20468;-73
2022/05/07 06:56:04;;;;;;;1999.90;999.90;;;;;;;;;;5023765;28;20436;-74
2022/05/07 06:58:35;;;;;;;1999.90;999.90;;;;;;;;;;5038251;28;21053;-73
2022/05/07 07:01:04;;;;;;;1999.90;999.90;;;;;;;;;;5024375;28;20481;-72
2022/05/07 07:03:32;;;;;;;1999.90;999.90;;;;;;;;;;5015064;28;21120;-74
2022/05/07 07:06:01;;;;;;;1999.90;999.90;;;;;;;;;;5023209;28;20410;-74
2022/05/07 07:08:32;;;;;;;1999.90;999.90;;;;;;;;;;5021711;28;20394;-74
2022/05/07 07:11:00;;;;;;;1999.90;999.90;;;;;;;;;;5024912;28;20443;-73
2022/05/07 07:13:27;;;;;;;1999.90;999.90;;;;;;;;;;4997582;28;20386;-73
2022/05/07 07:15:55;;;;;;;1999.90;999.90;;;;;;;;;;5019714;28;20501;-72
2022/05/07 07:18:24;;;;;;;1999.90;999.90;;;;;;;;;;5016303;28;20393;-72
2022/05/07 07:20:52;;;;;;;1999.90;999.90;;;;;;;;;;5026469;28;20993;-71
2022/05/07 07:23:20;;;;;;;1999.90;999.90;;;;;;;;;;5014915;28;20473;-71
2022/05/07 07:25:47;;;;;;;1999.90;999.90;;;;;;;;;;4993668;28;20434;-72
2022/05/07 07:28:15;;;;;;;1999.90;999.90;;;;;;;;;;5013839;28;20492;-69
2022/05/07 07:30:43;;;;;;;1999.90;999.90;;;;;;;;;;5009896;28;20429;-73
2022/05/07 07:33:12;;;;;;;1999.90;999.90;;;;;;;;;;5014930;28;20564;-68
2022/05/07 07:35:42;;;;;;;1999.90;999.90;;;;;;;;;;5013537;28;20414;-69
2022/05/07 07:38:09;;;;;;;1999.90;999.90;;;;;;;;;;5009797;28;20400;-69
2022/05/07 07:40:37;;;;;;;1999.90;999.90;;;;;;;;;;5012904;28;20446;-69
2022/05/07 07:43:05;;;;;;;1999.90;999.90;;;;;;;;;;5013767;28;20443;-70
2022/05/07 07:48:18;;;;;;;1999.90;999.90;;;;;;;;;;5012251;28;21762;-72
2022/05/07 07:50:49;;;;;;;1999.90;999.90;;;;;;;;;;5012647;28;20406;-72
2022/05/07 07:53:17;;;;;;;1999.90;999.90;;;;;;;;;;5001285;28;20394;-71
2022/05/07 07:55:44;;;;;;;1999.90;999.90;;;;;;;;;;5013510;28;20416;-70
2022/05/07 07:58:12;;;;;;;1999.90;999.90;;;;;;;;;;5019450;28;20393;-71
2022/05/07 08:00:42;;;;;;;1999.90;999.90;;;;;;;;;;5015672;28;20443;-72
2022/05/07 08:03:11;;;;;;;1999.90;999.90;;;;;;;;;;5011168;28;20389;-70
2022/05/07 08:05:39;;;;;;;1999.90;999.90;;;;;;;;;;5013659;28;20488;-70
2022/05/07 08:13:40;;;;;;;1999.90;999.90;;;;;;;;;;5028708;28;20532;-71
2022/05/07 08:16:08;;;;;;;1999.90;999.90;;;;;;;;;;5004204;28;20695;-70
2022/05/07 08:18:36;;;;;;;1999.90;999.90;;;;;;;;;;5018975;28;20484;-72
2022/05/07 08:21:04;;;;;;;1999.90;999.90;;;;;;;;;;5021373;28;20418;-73
2022/05/07 08:23:33;;;;;;;1999.90;999.90;;;;;;;;;;5017284;28;20380;-72
2022/05/07 08:26:02;;;;;;;1999.90;999.90;;;;;;;;;;5020645;28;20481;-72
2022/05/07 08:28:30;;;;;;;1999.90;999.90;;;;;;;;;;5019003;28;20397;-72
2022/05/07 08:30:58;;;;;;;1999.90;999.90;;;;;;;;;;5033970;28;20911;-72
2022/05/07 08:33:26;;;;;;;1999.90;999.90;;;;;;;;;;5020733;28;20980;-72
2022/05/07 08:35:53;;;;;;;1999.90;999.90;;;;;;;;;;5021378;28;20661;-71
2022/05/07 08:38:22;;;;;;;1999.90;999.90;;;;;;;;;;5021178;28;20431;-71
2022/05/07 08:40:51;;;;;;;1999.90;999.90;;;;;;;;;;5014162;28;20398;-75
2022/05/07 08:43:20;;;;;;;1999.90;999.90;;;;;;;;;;5018881;28;20439;-74
2022/05/07 08:45:47;;;;;;;1999.90;999.90;;;;;;;;;;5012147;28;20422;-76
2022/05/07 08:48:15;;;;;;;1999.90;999.90;;;;;;;;;;5016735;28;21249;-75
2022/05/07 08:50:43;;;;;;;1999.90;999.90;;;;;;;;;;5022300;28;20430;-76
2022/05/07 08:53:11;;;;;;;1999.90;999.90;;;;;;;;;;5027584;28;20524;-73
2022/05/07 08:55:38;;;;;;;1999.90;999.90;;;;;;;;;;5015173;28;20500;-72
2022/05/07 08:58:07;;;;;;;1999.90;999.90;;;;;;;;;;5016978;28;20394;-73
2022/05/07 09:00:38;;;;;;;1999.90;999.90;;;;;;;;;;5032451;28;22298;-73
2022/05/07 09:03:05;;;;;;;1999.90;999.90;;;;;;;;;;5019708;28;20417;-71
2022/05/07 09:05:35;;;;;;;1999.90;999.90;;;;;;;;;;5017754;28;20396;-74
2022/05/07 09:08:03;;;;;;;1999.90;999.90;;;;;;;;;;5012142;28;20394;-74
2022/05/07 09:10:36;;;;;;;1999.90;999.90;;;;;;;;;;5011405;28;20980;-73
2022/05/07 09:13:13;;;;;;;1999.90;999.90;;;;;;;;;;5011971;28;20401;-73
2022/05/07 09:15:51;;;;;;;1999.90;999.90;;;;;;;;;;4998738;28;20931;-74
2022/05/07 09:18:20;;;;;;;1999.90;999.90;;;;;;;;;;5030111;28;20391;-71
2022/05/07 09:21:15;;;;;;;1999.90;999.90;;;;;;;;;;4997248;28;20398;-74
2022/05/07 09:23:44;;;;;;;1999.90;999.90;;;;;;;;;;5018763;28;20485;-73
2022/05/07 09:26:24;;;;;;;1999.90;999.90;;;;;;;;;;5014634;28;20390;-73
2022/05/07 09:28:53;;;;;;;1999.90;999.90;;;;;;;;;;5014121;28;20398;-73
2022/05/07 09:31:24;;;;;;;1999.90;999.90;;;;;;;;;;5008693;28;20473;-72
2022/05/07 09:33:52;;;;;;;1999.90;999.90;;;;;;;;;;5015592;28;20584;-72
2022/05/07 09:36:19;;;;;;;1999.90;999.90;;;;;;;;;;5018390;28;20400;-73
2022/05/07 09:38:57;;;;;;;1999.90;999.90;;;;;;;;;;5014398;28;20877;-73
2022/05/07 09:41:27;;;;;;;1999.90;999.90;;;;;;;;;;5017715;28;20400;-72
2022/05/07 09:43:56;;;;;;;1999.90;999.90;;;;;;;;;;5002178;28;20426;-72
2022/05/07 09:46:24;;;;;;;1999.90;999.90;;;;;;;;;;5028292;28;20402;-72
2022/05/07 09:48:52;;;;;;;1999.90;999.90;;;;;;;;;;5009910;28;21366;-73
2022/05/07 09:51:20;;;;;;;1999.90;999.90;;;;;;;;;;5016345;28;20428;-73
2022/05/07 09:59:19;;;;;;;1999.90;999.90;;;;;;;;;;5012491;28;20483;-74
2022/05/07 10:02:00;;;;;;;1999.90;999.90;;;;;;;;;;5011717;28;20488;-74
2022/05/07 10:04:39;;;;;;;1999.90;999.90;;;;;;;;;;5015962;28;20450;-74
2022/05/07 10:07:14;;;;;;;1999.90;999.90;;;;;;;;;;5032523;28;20414;-72
2022/05/07 10:09:43;;;;;;;1999.90;999.90;;;;;;;;;;5013761;28;21763;-74
2022/05/07 10:12:17;;;;;;;1999.90;999.90;;;;;;;;;;5013359;28;20923;-74
2022/05/07 10:14:46;;;;;;;1999.90;999.90;;;;;;;;;;5023562;28;20402;-74
2022/05/07 10:17:15;;;;;;;1999.90;999.90;;;;;;;;;;5017686;28;20412;-74
2022/05/07 10:19:43;;;;;;;1999.90;999.90;;;;;;;;;;5010689;28;20385;-73
2022/05/07 10:22:17;;;;;;;1999.90;999.90;;;;;;;;;;5017974;28;21307;-74
2022/05/07 10:24:45;;;;;;;1999.90;999.90;;;;;;;;;;5025149;28;20489;-74
2022/05/07 10:27:21;;;;;;;1999.90;999.90;;;;;;;;;;5020260;28;20692;-73
2022/05/07 10:29:50;;;;;;;1999.90;999.90;;;;;;;;;;5020189;28;20408;-74
2022/05/07 10:32:19;;;;;;;1999.90;999.90;;;;;;;;;;4997001;28;20411;-74
2022/05/07 10:34:50;;;;;;;1999.90;999.90;;;;;;;;;;5005657;28;20477;-73
2022/05/07 10:37:17;;;;;;;1999.90;999.90;;;;;;;;;;5010675;28;20397;-75
2022/05/07 10:39:50;;;;;;;1999.90;999.90;;;;;;;;;;5016154;28;20756;-75
2022/05/07 10:42:18;;;;;;;1999.90;999.90;;;;;;;;;;5024772;28;20436;-76
2022/05/07 10:44:45;;;;;;;1999.90;999.90;;;;;;;;;;5022942;28;20406;-75
2022/05/07 10:47:15;;;;;;;1999.90;999.90;;;;;;;;;;5018026;28;20433;-72
2022/05/07 10:49:52;;;;;;;1999.90;999.90;;;;;;;;;;5007878;28;20844;-74
2022/05/07 10:52:30;;;;;;;1999.90;999.90;;;;;;;;;;5020049;28;20444;-75
2022/05/07 10:55:11;;;;;;;1999.90;999.90;;;;;;;;;;5022733;28;20427;-76
2022/05/07 10:57:39;;;;;;;1999.90;999.90;;;;;;;;;;5023315;28;20507;-73
2022/05/07 11:00:10;;;;;;;1999.90;999.90;;;;;;;;;;5020287;28;20485;-74
2022/05/07 11:02:39;;;;;;;1999.90;999.90;;;;;;;;;;5022042;28;21451;-74
2022/05/07 11:05:07;;;;;;;1999.90;999.90;;;;;;;;;;5028546;28;20398;-77
2022/05/07 11:07:36;;;;;;;1999.90;999.90;;;;;;;;;;5018586;28;22189;-76
2022/05/07 11:10:10;;;;;;;1999.90;999.90;;;;;;;;;;5019364;28;20438;-74
2022/05/07 11:12:39;;;;;;;1999.90;999.90;;;;;;;;;;4994432;28;20410;-74
2022/05/07 11:15:07;;;;;;;1999.90;999.90;;;;;;;;;;5030204;28;20414;-74
2022/05/07 11:17:35;;;;;;;1999.90;999.90;;;;;;;;;;5013814;28;20648;-73
2022/05/07 11:20:11;;;;;;;1999.90;999.90;;;;;;;;;;5016203;28;20769;-75
2022/05/07 11:22:40;;;;;;;1999.90;999.90;;;;;;;;;;5014087;28;20507;-75
2022/05/07 11:25:10;;;;;;;1999.90;999.90;;;;;;;;;;5026072;28;20394;-75
2022/05/07 11:27:38;;;;;;;1999.90;999.90;;;;;;;;;;4995172;28;21318;-75
2022/05/07 11:30:10;;;;;;;1999.90;999.90;;;;;;;;;;5017470;28;20525;-74
2022/05/07 11:32:39;;;;;;;1999.90;999.90;;;;;;;;;;5018393;28;20420;-76
2022/05/07 11:35:07;;;;;;;1999.90;999.90;;;;;;;;;;5018901;28;20903;-74
2022/05/07 11:37:40;;;;;;;1999.90;999.90;;;;;;;;;;5016060;28;20466;-74
2022/05/07 11:40:08;;;;;;;1999.90;999.90;;;;;;;;;;5014248;28;20999;-75
2022/05/07 11:42:39;;;;;;;1999.90;999.90;;;;;;;;;;5015812;28;20422;-75
2022/05/07 11:45:27;;;;;;;1999.90;999.90;;;;;;;;;;5014217;28;20405;-74
2022/05/07 11:47:57;;;;;;;1999.90;999.90;;;;;;;;;;5012645;28;20406;-75
2022/05/07 11:50:26;;;;;;;1999.90;999.90;;;;;;;;;;5012494;28;20437;-76
2022/05/07 11:52:56;;;;;;;1999.90;999.90;;;;;;;;;;4994302;28;20931;-76
2022/05/07 11:55:28;;;;;;;1999.90;999.90;;;;;;;;;;5012439;28;20896;-76
2022/05/07 11:57:56;;;;;;;1999.90;999.90;;;;;;;;;;5017945;28;20473;-75
2022/05/07 12:00:24;;;;;;;1999.90;999.90;;;;;;;;;;5014915;28;20498;-78
2022/05/07 12:02:54;;;;;;;1999.90;999.90;;;;;;;;;;5013948;28;20414;-76
2022/05/07 12:05:22;;;;;;;1999.90;999.90;;;;;;;;;;5015306;28;21206;-75
2022/05/07 12:07:51;;;;;;;1999.90;999.90;;;;;;;;;;5012402;28;20493;-76
2022/05/07 12:10:21;;;;;;;1999.90;999.90;;;;;;;;;;5015579;28;20391;-77
2022/05/07 12:12:49;;;;;;;1999.90;999.90;;;;;;;;;;5029452;28;20410;-76
2022/05/07 12:17:51;;;;;;;1999.90;999.90;;;;;;;;;;5015135;28;20432;-75
2022/05/07 12:18:05;;;;;;;1999.90;999.90;;;;;;;;;;5013821;28;20406;-75
2022/05/07 12:20:33;;;;;;;1999.90;999.90;;;;;;;;;;5015297;28;20430;-76
2022/05/07 12:31:17;;;;;;;1999.90;999.90;;;;;;;;;;5014340;28;20398;-76
2022/05/07 12:33:45;;;;;;;1999.90;999.90;;;;;;;;;;5015292;28;20872;-75
2022/05/07 12:36:12;;;;;;;1999.90;999.90;;;;;;;;;;5013859;28;20398;-75
2022/05/07 12:38:40;;;;;;;1999.90;999.90;;;;;;;;;;4996311;28;20406;-75
2022/05/07 12:41:10;;;;;;;1999.90;999.90;;;;;;;;;;5013046;28;20805;-76
2022/05/07 12:43:38;;;;;;;1999.90;999.90;;;;;;;;;;5019230;28;20536;-74
2022/05/07 12:46:05;;;;;;;1999.90;999.90;;;;;;;;;;5017329;28;20577;-74
2022/05/07 12:48:33;;;;;;;1999.90;999.90;;;;;;;;;;5033717;28;20457;-76
2022/05/07 12:51:01;;;;;;;1999.90;999.90;;;;;;;;;;5020024;28;20399;-76
2022/05/07 12:53:28;;;;;;;1999.90;999.90;;;;;;;;;;5034155;28;20443;-75
2022/05/07 12:55:56;;;;;;;1999.90;999.90;;;;;;;;;;5027189;28;21235;-76
2022/05/07 12:58:25;;;;;;;1999.90;999.90;;;;;;;;;;5019120;28;20420;-76
2022/05/07 13:00:52;;;;;;;1999.90;999.90;;;;;;;;;;5023635;28;20433;-75
2022/05/07 13:03:20;;;;;;;1999.90;999.90;;;;;;;;;;4995626;28;20402;-74
2022/05/07 13:05:47;;;;;;;1999.90;999.90;;;;;;;;;;5011781;28;20410;-76
2022/05/07 13:08:20;;;;;;;1999.90;999.90;;;;;;;;;;5019351;28;20926;-76
2022/05/07 13:10:48;;;;;;;1999.90;999.90;;;;;;;;;;5024030;28;20485;-77
2022/05/07 13:13:18;;;;;;;1999.90;999.90;;;;;;;;;;5018385;28;20441;-75
2022/05/07 13:15:47;;;;;;;1999.90;999.90;;;;;;;;;;5021400;28;20904;-75
2022/05/07 13:18:15;;;;;;;1999.90;999.90;;;;;;;;;;5021093;28;21900;-75
2022/05/07 13:20:42;;;;;;;1999.90;999.90;;;;;;;;;;5001304;28;20788;-76
2022/05/07 13:23:12;;;;;;;1999.90;999.90;;;;;;;;;;5039745;28;20396;-74
2022/05/07 13:25:40;;;;;;;1999.90;999.90;;;;;;;;;;5023536;28;20406;-75
2022/05/07 13:28:07;;;;;;;1999.90;999.90;;;;;;;;;;5042522;28;20424;-75
2022/05/07 13:30:35;;;;;;;1999.90;999.90;;;;;;;;;;5022118;28;20515;-75
2022/05/07 13:33:06;;;;;;;1999.90;999.90;;;;;;;;;;5018578;28;20446;-77
2022/05/07 13:35:33;;;;;;;1999.90;999.90;;;;;;;;;;5022042;28;20429;-76
2022/05/07 13:38:01;;;;;;;1999.90;999.90;;;;;;;;;;5015405;28;20473;-74
2022/05/07 13:40:29;;;;;;;1999.90;999.90;;;;;;;;;;5021415;28;20496;-72
2022/05/07 13:42:56;;;;;;;1999.90;999.90;;;;;;;;;;5027256;28;20397;-73
2022/05/07 13:45:24;;;;;;;1999.90;999.90;;;;;;;;;;5012330;28;20672;-72
2022/05/07 13:47:51;;;;;;;1999.90;999.90;;;;;;;;;;5012640;28;20423;-71
2022/05/07 13:50:22;;;;;;;1999.90;999.90;;;;;;;;;;5012087;28;20641;-73
2022/05/07 13:52:50;;;;;;;1999.90;999.90;;;;;;;;;;5016004;28;20413;-72
2022/05/07 13:55:17;;;;;;;1999.90;999.90;;;;;;;;;;5014855;28;20430;-74
2022/05/07 13:57:44;;;;;;;1999.90;999.90;;;;;;;;;;5017262;28;21346;-76
2022/05/07 14:00:14;;;;;;;1999.90;999.90;;;;;;;;;;5031083;28;20467;-73
2022/05/07 14:02:42;;;;;;;1999.90;999.90;;;;;;;;;;5018934;28;20484;-74
2022/05/07 14:05:10;;;;;;;1999.90;999.90;;;;;;;;;;5019431;28;21435;-74
2022/05/07 14:07:39;;;;;;;1999.90;999.90;;;;;;;;;;5015043;28;20461;-74
2022/05/07 14:10:07;;;;;;;1999.90;999.90;;;;;;;;;;5015468;28;20469;-73
2022/05/07 14:12:35;;;;;;;1999.90;999.90;;;;;;;;;;5023484;28;20461;-72
2022/05/07 14:15:05;;;;;;;1999.90;999.90;;;;;;;;;;5017902;28;20425;-78
2022/05/07 14:17:33;;;;;;;1999.90;999.90;;;;;;;;;;5024355;28;20429;-77
2022/05/07 14:20:01;;;;;;;1999.90;999.90;;;;;;;;;;5026026;28;20397;-77
2022/05/07 14:22:31;;;;;;;1999.90;999.90;;;;;;;;;;5026135;28;20410;-77
2022/05/07 14:25:03;;;;;;;1999.90;999.90;;;;;;;;;;5023755;28;20982;-78
2022/05/07 14:27:32;;;;;;;1999.90;999.90;;;;;;;;;;5039840;28;20505;-77
2022/05/07 14:30:00;;;;;;;1999.90;999.90;;;;;;;;;;5022129;28;20448;-76
2022/05/07 14:32:29;;;;;;;1999.90;999.90;;;;;;;;;;5008846;28;20559;-78